createdAt,value
2022-12-08T00:01:16.880Z,5.78
2022-12-08T00:03:44.546Z,5.03
2022-12-08T00:06:49.919Z,6.63
2022-12-08T00:09:23.383Z,5.28
2022-12-08T00:11:52.509Z,6.32
2022-12-08T00:14:20.593Z,5.72
2022-12-08T00:16:48.057Z,6.28
2022-12-08T00:19:15.669Z,5.43
2022-12-08T00:21:43.075Z,7.13
2022-12-08T00:24:10.469Z,6.45
2022-12-08T00:26:38.061Z,7.32
2022-12-08T00:29:05.834Z,7.03
2022-12-08T00:31:33.349Z,5.38
2022-12-08T00:34:01.180Z,5.88
2022-12-08T00:36:28.673Z,5.72
2022-12-08T00:38:56.967Z,5.25
2022-12-08T00:41:44.047Z,5.13
2022-12-08T00:44:13.577Z,5.57
2022-12-08T00:46:43.498Z,5.93
2022-12-08T00:49:11.257Z,5.43
2022-12-08T00:51:38.678Z,5.93
2022-12-08T00:54:06.647Z,5.82
2022-12-08T00:56:34.211Z,6.50
2022-12-08T00:59:01.564Z,5.78
2022-12-08T01:01:29.400Z,6.75
2022-12-08T01:03:56.896Z,5.50
2022-12-08T01:06:24.558Z,5.10
2022-12-08T01:08:52.000Z,5.18
2022-12-08T01:11:19.534Z,5.15
2022-12-08T01:13:47.593Z,4.85
2022-12-08T01:16:28.065Z,4.18
2022-12-08T01:18:55.686Z,4.72
2022-12-08T01:21:23.389Z,5.30
2022-12-08T01:23:51.105Z,4.78
2022-12-08T01:26:19.067Z,5.10
2022-12-08T01:28:46.890Z,5.20
2022-12-08T01:31:16.984Z,5.03
2022-12-08T01:33:44.719Z,5.57
2022-12-08T01:36:22.229Z,5.35
2022-12-08T01:38:50.095Z,4.95
2022-12-08T01:41:18.903Z,5.97
2022-12-08T01:44:11.002Z,4.30
2022-12-08T01:46:40.001Z,5.10
2022-12-08T01:49:16.358Z,4.63
2022-12-08T01:51:49.533Z,5.00
2022-12-08T01:54:16.929Z,5.25
2022-12-08T01:56:46.717Z,5.60
2022-12-08T01:59:14.068Z,4.57
2022-12-08T02:01:41.531Z,4.70
2022-12-08T02:04:09.097Z,4.80
2022-12-08T02:06:38.647Z,4.22
2022-12-08T02:09:06.715Z,5.10
2022-12-08T02:11:34.644Z,4.63
2022-12-08T02:14:04.285Z,3.97
2022-12-08T02:16:39.356Z,4.53
2022-12-08T02:19:31.775Z,4.15
2022-12-08T02:22:32.244Z,5.13
2022-12-08T02:25:25.913Z,6.28
2022-12-08T02:28:38.504Z,5.18
2022-12-08T02:31:11.021Z,6.05
2022-12-08T02:34:07.792Z,5.22
2022-12-08T02:36:47.645Z,4.97
2022-12-08T02:39:42.889Z,5.43
2022-12-08T02:42:35.154Z,4.85
2022-12-08T02:45:07.384Z,4.85
2022-12-08T02:47:34.879Z,5.65
2022-12-08T02:50:02.815Z,5.80
2022-12-08T02:52:30.549Z,4.03
2022-12-08T02:55:05.788Z,5.82
2022-12-08T02:57:51.995Z,4.65
2022-12-08T03:00:21.038Z,5.55
2022-12-08T03:03:14.574Z,5.47
2022-12-08T03:06:05.774Z,3.92
2022-12-08T03:08:45.314Z,5.50
2022-12-08T03:11:20.549Z,4.38
2022-12-08T03:13:53.443Z,4.65
2022-12-08T03:16:24.784Z,5.30
2022-12-08T03:18:56.360Z,5.18
2022-12-08T03:21:23.822Z,5.32
2022-12-08T03:23:55.489Z,4.22
2022-12-08T03:26:47.076Z,5.07
2022-12-08T03:29:14.520Z,5.43
2022-12-08T03:31:45.061Z,5.60
2022-12-08T03:34:12.524Z,6.68
2022-12-08T03:36:39.909Z,5.30
2022-12-08T03:39:07.572Z,5.10
2022-12-08T03:41:35.032Z,4.80
2022-12-08T03:44:02.492Z,5.22
2022-12-08T03:48:56.783Z,5.00
2022-12-08T03:51:24.485Z,5.35
2022-12-08T03:53:52.020Z,6.32
2022-12-08T03:56:31.205Z,6.28
2022-12-08T03:58:58.756Z,4.68
2022-12-08T04:01:26.296Z,5.55
2022-12-08T04:03:53.980Z,6.50
2022-12-08T04:06:21.527Z,6.35
2022-12-08T04:08:49.076Z,7.03
2022-12-08T04:11:16.867Z,5.68
2022-12-08T04:13:44.554Z,5.40
2022-12-08T04:16:19.914Z,5.93
2022-12-08T04:18:48.013Z,6.55
2022-12-08T04:21:15.819Z,5.25
2022-12-08T04:23:43.379Z,6.50
2022-12-08T04:26:11.144Z,5.63
2022-12-08T04:28:39.112Z,5.60
2022-12-08T04:31:06.796Z,7.13
2022-12-08T04:33:35.442Z,5.45
2022-12-08T04:36:03.790Z,5.70
2022-12-08T04:38:31.676Z,6.30
2022-12-08T04:40:59.559Z,6.07
2022-12-08T04:43:27.085Z,6.07
2022-12-08T04:45:54.734Z,6.13
2022-12-08T04:48:22.123Z,6.60
2022-12-08T04:50:49.719Z,7.63
2022-12-08T04:53:17.372Z,6.93
2022-12-08T04:55:45.025Z,6.45
2022-12-08T04:58:13.931Z,7.22
2022-12-08T05:00:41.559Z,6.28
2022-12-08T05:03:09.262Z,6.60
2022-12-08T05:05:36.679Z,7.00
2022-12-08T05:08:04.406Z,6.32
2022-12-08T05:10:32.435Z,6.00
2022-12-08T05:13:00.415Z,6.75
2022-12-08T05:15:27.972Z,7.47
2022-12-08T05:17:57.315Z,6.47
2022-12-08T05:20:25.214Z,6.95
2022-12-08T05:22:52.831Z,6.00
2022-12-08T05:25:20.406Z,7.05
2022-12-08T05:27:48.033Z,5.38
2022-12-08T05:30:15.748Z,6.88
2022-12-08T05:32:43.146Z,6.95
2022-12-08T05:35:10.830Z,6.55
2022-12-08T05:37:38.339Z,6.15
2022-12-08T05:40:06.778Z,5.65
2022-12-08T05:42:34.320Z,6.35
2022-12-08T05:45:01.898Z,5.38
2022-12-08T05:47:33.155Z,5.85
2022-12-08T05:50:04.066Z,5.75
2022-12-08T05:52:32.461Z,6.57
2022-12-08T05:55:00.144Z,5.65
2022-12-08T05:57:27.568Z,6.05
2022-12-08T05:59:57.232Z,6.18
2022-12-08T06:02:24.817Z,5.20
2022-12-08T06:04:52.462Z,6.35
2022-12-08T06:07:19.903Z,5.18
2022-12-08T06:09:47.697Z,5.20
2022-12-08T06:12:16.261Z,5.82
2022-12-08T06:14:44.392Z,5.75
2022-12-08T06:17:11.865Z,5.68
2022-12-08T06:19:39.445Z,6.45
2022-12-08T06:22:06.939Z,6.38
2022-12-08T06:24:34.847Z,5.13
2022-12-08T06:27:02.360Z,5.72
2022-12-08T06:29:29.991Z,5.00
2022-12-08T06:31:57.480Z,6.13
2022-12-08T06:34:25.001Z,6.20
2022-12-08T06:36:52.690Z,6.47
2022-12-08T06:39:20.232Z,7.00
2022-12-08T06:42:06.280Z,6.28
2022-12-08T06:44:34.429Z,6.25
2022-12-08T06:47:01.885Z,6.28
2022-12-08T06:49:29.384Z,6.40
2022-12-08T06:51:56.986Z,7.35
2022-12-08T06:54:24.344Z,6.68
2022-12-08T06:56:51.846Z,6.50
2022-12-08T06:59:19.729Z,7.30
2022-12-08T07:01:47.197Z,7.20
2022-12-08T07:04:14.624Z,7.20
2022-12-08T07:06:42.040Z,6.60
2022-12-08T07:09:09.764Z,7.07
2022-12-08T07:11:38.735Z,6.82
2022-12-08T07:14:06.149Z,7.97
2022-12-08T07:16:33.705Z,6.43
2022-12-08T07:19:01.385Z,7.35
2022-12-08T07:21:29.256Z,6.20
2022-12-08T07:23:58.065Z,8.15
2022-12-08T07:26:25.783Z,7.32
2022-12-08T07:28:53.246Z,6.75
2022-12-08T07:31:24.930Z,7.25
2022-12-08T07:33:52.820Z,6.82
2022-12-08T07:36:20.608Z,5.90
2022-12-08T07:38:48.169Z,6.35
2022-12-08T07:41:16.825Z,6.38
2022-12-08T07:43:44.396Z,6.63
2022-12-08T07:46:13.375Z,7.32
2022-12-08T07:48:40.937Z,6.47
2022-12-08T07:51:08.571Z,7.85
2022-12-08T07:53:36.346Z,6.80
2022-12-08T07:56:06.689Z,5.82
2022-12-08T07:58:34.334Z,9.02
2022-12-08T08:01:01.955Z,8.70
2022-12-08T08:03:29.828Z,7.18
2022-12-08T08:06:03.579Z,6.88
2022-12-08T08:08:31.634Z,7.03
2022-12-08T08:11:00.045Z,9.07
2022-12-08T08:13:27.504Z,7.57
2022-12-08T08:15:55.157Z,8.35
2022-12-08T08:18:22.761Z,9.65
2022-12-08T08:20:50.353Z,8.57
2022-12-08T08:23:17.799Z,8.38
2022-12-08T08:25:45.201Z,8.15
2022-12-08T08:28:12.705Z,8.73
2022-12-08T08:30:40.432Z,10.25
2022-12-08T08:33:08.176Z,9.55
2022-12-08T08:35:35.963Z,9.32
2022-12-08T08:38:03.560Z,8.68
2022-12-08T08:40:31.133Z,8.27
2022-12-08T08:43:00.940Z,7.97
2022-12-08T08:45:28.496Z,8.27
2022-12-08T08:47:55.897Z,9.70
2022-12-08T08:50:23.345Z,8.63
2022-12-08T08:52:50.773Z,8.65
2022-12-08T08:55:18.284Z,7.07
2022-12-08T08:57:46.158Z,7.82
2022-12-08T09:00:14.657Z,7.90
2022-12-08T09:02:42.967Z,7.40
2022-12-08T09:05:10.405Z,7.43
2022-12-08T09:07:38.127Z,7.63
2022-12-08T09:10:06.388Z,6.85
2022-12-08T09:12:33.925Z,6.43
2022-12-08T09:15:01.508Z,6.97
2022-12-08T09:17:29.071Z,8.10
2022-12-08T09:19:56.550Z,6.85
2022-12-08T09:22:24.111Z,7.60
2022-12-08T09:24:51.777Z,7.00
2022-12-08T09:27:19.361Z,7.18
2022-12-08T09:29:46.915Z,6.63
2022-12-08T09:32:14.351Z,7.43
2022-12-08T09:34:41.808Z,7.40
2022-12-08T09:37:09.518Z,6.18
2022-12-08T09:39:36.982Z,5.18
2022-12-08T09:42:06.877Z,6.72
2022-12-08T09:44:49.854Z,7.13
2022-12-08T09:47:23.266Z,5.63
2022-12-08T09:50:21.216Z,6.53
2022-12-08T09:53:09.042Z,7.38
2022-12-08T09:56:21.671Z,8.05
2022-12-08T09:59:12.342Z,7.82
2022-12-08T10:01:42.076Z,7.50
2022-12-08T10:04:34.053Z,9.32
2022-12-08T10:07:17.063Z,8.90
2022-12-08T10:10:02.073Z,8.38
2022-12-08T10:12:55.045Z,8.02
2022-12-08T10:15:25.645Z,8.63
2022-12-08T10:17:53.123Z,7.33
2022-12-08T10:20:22.802Z,6.57
2022-12-08T10:22:53.188Z,6.65
2022-12-08T10:25:41.659Z,6.53
2022-12-08T10:28:09.118Z,6.80
2022-12-08T10:30:36.678Z,6.35
2022-12-08T10:33:04.105Z,6.60
2022-12-08T10:35:45.171Z,5.68
2022-12-08T10:40:51.095Z,5.45
2022-12-08T10:43:23.042Z,5.93
2022-12-08T10:45:51.343Z,5.03
2022-12-08T10:48:24.529Z,4.32
2022-12-08T10:50:58.797Z,5.35
2022-12-08T10:53:31.093Z,5.22
2022-12-08T10:55:58.369Z,5.22
2022-12-08T10:58:54.229Z,5.38
2022-12-08T11:01:26.422Z,4.93
2022-12-08T11:04:04.564Z,5.05
2022-12-08T11:06:34.473Z,6.22
2022-12-08T11:09:03.189Z,5.13
2022-12-08T11:11:49.981Z,5.78
2022-12-08T11:14:57.304Z,5.40
2022-12-08T11:17:26.835Z,4.57
2022-12-08T11:20:01.426Z,6.80
2022-12-08T11:22:29.425Z,7.13
2022-12-08T11:25:24.936Z,8.23
2022-12-08T11:27:59.889Z,8.80
2022-12-08T11:30:38.382Z,8.45
2022-12-08T11:33:22.523Z,7.47
2022-12-08T11:36:07.362Z,7.32
2022-12-08T11:38:35.543Z,7.82
2022-12-08T11:41:12.455Z,7.28
2022-12-08T11:44:04.144Z,8.63
2022-12-08T11:46:34.986Z,7.20
2022-12-08T11:49:06.600Z,6.22
2022-12-08T11:51:44.382Z,5.93
2022-12-08T11:54:28.271Z,7.20
2022-12-08T11:57:00.101Z,6.90
2022-12-08T11:59:32.401Z,6.40
2022-12-08T12:02:02.028Z,8.07
2022-12-08T12:04:55.088Z,9.65
2022-12-08T12:07:48.344Z,7.65
2022-12-08T12:10:22.395Z,7.07
2022-12-08T12:13:21.282Z,8.68
2022-12-08T12:16:22.370Z,8.07
2022-12-08T12:18:55.611Z,7.03
2022-12-08T12:21:25.979Z,6.43
2022-12-08T12:23:55.746Z,6.70
2022-12-08T12:26:28.329Z,7.00
2022-12-08T12:28:57.539Z,7.40
2022-12-08T12:31:26.959Z,7.72
2022-12-08T12:33:57.099Z,7.65
2022-12-08T12:36:25.684Z,8.30
2022-12-08T12:39:04.268Z,7.30
2022-12-08T12:41:53.484Z,6.80
2022-12-08T12:44:22.941Z,7.20
2022-12-08T12:46:50.368Z,7.70
2022-12-08T12:49:39.889Z,6.53
2022-12-08T12:52:10.771Z,7.30
2022-12-08T12:54:38.255Z,7.90
2022-12-08T12:57:05.562Z,7.25
2022-12-08T13:00:02.615Z,7.35
2022-12-08T13:02:31.079Z,6.78
2022-12-08T13:04:59.997Z,7.20
2022-12-08T13:07:33.166Z,6.88
2022-12-08T13:10:07.374Z,6.97
2022-12-08T13:12:35.153Z,7.63
2022-12-08T13:15:06.253Z,7.30
2022-12-08T13:17:35.669Z,6.95
2022-12-08T13:20:05.918Z,8.05
2022-12-08T13:23:15.138Z,7.55
2022-12-08T13:25:43.132Z,7.75
2022-12-08T13:28:15.998Z,8.82
2022-12-08T13:30:48.982Z,7.87
2022-12-08T13:33:27.496Z,8.10
2022-12-08T13:36:13.151Z,7.60
2022-12-08T13:38:40.637Z,7.80
2022-12-08T13:41:19.161Z,8.52
2022-12-08T13:44:31.142Z,7.95
2022-12-08T13:58:38.860Z,6.82
2022-12-08T14:01:16.821Z,7.28
2022-12-08T14:04:33.812Z,7.28
2022-12-08T14:06:46.918Z,8.40
2022-12-08T14:09:22.309Z,7.88
2022-12-08T14:12:03.442Z,8.90
2022-12-08T14:17:29.776Z,8.40
2022-12-08T14:20:05.517Z,8.05
2022-12-08T14:22:34.944Z,8.00
2022-12-08T14:25:02.699Z,7.72
2022-12-08T14:27:33.708Z,8.00
2022-12-08T14:30:02.702Z,7.20
2022-12-08T14:32:39.711Z,8.70
2022-12-08T14:35:07.351Z,10.35
2022-12-08T14:37:35.712Z,13.00
2022-12-08T14:40:06.917Z,11.38
2022-12-08T14:42:43.739Z,8.13
2022-12-08T14:45:12.973Z,7.63
2022-12-08T14:47:40.341Z,6.68
2022-12-08T14:50:40.486Z,7.07
2022-12-08T14:53:12.959Z,7.80
2022-12-08T14:55:40.414Z,7.55
2022-12-08T14:58:22.203Z,7.57
2022-12-08T15:00:52.206Z,7.53
2022-12-08T15:03:19.808Z,7.55
2022-12-08T15:05:52.248Z,8.15
2022-12-08T15:08:19.656Z,9.48
2022-12-08T15:10:48.310Z,8.43
2022-12-08T15:13:16.489Z,9.50
2022-12-08T15:15:50.465Z,8.60
2022-12-08T15:18:28.593Z,11.02
2022-12-08T15:21:01.340Z,10.27
2022-12-08T15:23:34.779Z,12.20
2022-12-08T15:26:03.832Z,10.90
2022-12-08T15:28:31.959Z,10.88
2022-12-08T15:30:59.716Z,9.73
2022-12-08T15:33:27.258Z,9.52
2022-12-08T15:35:54.744Z,8.88
2022-12-08T15:38:31.607Z,8.27
2022-12-08T15:41:00.081Z,8.55
2022-12-08T15:43:27.605Z,8.48
2022-12-08T15:45:59.566Z,8.20
2022-12-08T15:48:28.895Z,9.10
2022-12-08T15:50:56.565Z,6.93
2022-12-08T15:53:24.040Z,7.25
2022-12-08T15:58:58.144Z,7.53
2022-12-08T16:01:26.529Z,8.48
2022-12-08T16:04:43.813Z,7.97
2022-12-08T16:07:20.306Z,11.32
2022-12-08T16:09:34.402Z,10.32
2022-12-08T16:12:20.616Z,8.65
2022-12-08T16:17:36.120Z,9.75
2022-12-08T16:20:05.498Z,11.35
2022-12-08T16:25:22.152Z,10.60
2022-12-08T16:28:36.964Z,10.63
2022-12-08T16:30:39.626Z,10.35
2022-12-08T16:33:07.253Z,14.00
2022-12-08T16:35:34.664Z,15.65
2022-12-08T16:38:02.442Z,14.20
2022-12-08T16:40:30.530Z,12.93
2022-12-08T16:42:58.242Z,13.88
2022-12-08T16:45:27.651Z,12.85
2022-12-08T16:48:01.068Z,10.95
2022-12-08T16:50:33.049Z,9.93
2022-12-08T16:53:01.528Z,11.43
2022-12-08T16:55:29.072Z,8.27
2022-12-08T16:57:56.954Z,8.63
2022-12-08T17:00:26.372Z,9.85
2022-12-08T17:02:54.090Z,8.90
2022-12-08T17:05:22.563Z,8.18
2022-12-08T17:07:51.328Z,9.18
2022-12-08T17:10:21.172Z,7.70
2022-12-08T17:12:49.111Z,9.43
2022-12-08T17:15:17.798Z,8.05
2022-12-08T17:17:45.236Z,7.45
2022-12-08T17:20:14.952Z,9.20
2022-12-08T17:22:42.353Z,8.00
2022-12-08T17:25:10.241Z,7.72
2022-12-08T17:27:38.764Z,8.23
2022-12-08T17:30:07.574Z,7.72
2022-12-08T17:32:35.400Z,8.15
2022-12-08T17:35:03.437Z,8.20
2022-12-08T17:37:31.068Z,9.10
2022-12-08T17:39:58.538Z,8.43
2022-12-08T17:42:27.290Z,7.72
2022-12-08T17:44:54.925Z,6.88
2022-12-08T17:47:23.246Z,6.15
2022-12-08T17:49:50.822Z,5.45
2022-12-08T17:52:18.417Z,8.00
2022-12-08T17:54:45.868Z,9.30
2022-12-08T17:57:13.258Z,9.15
2022-12-08T17:59:40.944Z,8.98
2022-12-08T18:02:10.161Z,7.57
2022-12-08T18:04:37.566Z,9.20
2022-12-08T18:07:05.326Z,8.40
2022-12-08T18:09:33.769Z,9.02
2022-12-08T18:12:01.441Z,7.70
2022-12-08T18:14:29.020Z,8.25
2022-12-08T18:16:56.607Z,8.55
2022-12-08T18:19:25.010Z,8.88
2022-12-08T18:21:52.795Z,7.32
2022-12-08T18:24:22.462Z,7.60
2022-12-08T18:26:52.160Z,8.60
2022-12-08T18:29:20.514Z,7.93
2022-12-08T18:31:47.983Z,8.15
2022-12-08T18:34:15.313Z,7.90
2022-12-08T18:36:42.844Z,8.70
2022-12-08T18:39:26.660Z,9.13
2022-12-08T18:41:54.343Z,7.97
2022-12-08T18:44:21.686Z,8.88
2022-12-08T18:46:49.160Z,9.65
2022-12-08T18:49:18.787Z,8.43
2022-12-08T18:51:46.236Z,9.13
2022-12-08T18:54:13.657Z,9.90
2022-12-08T18:56:41.152Z,9.07
2022-12-08T18:59:10.571Z,8.88
2022-12-08T19:01:38.919Z,8.38
2022-12-08T19:06:55.148Z,8.02
2022-12-08T19:09:25.490Z,8.13
2022-12-08T19:11:52.961Z,8.00
2022-12-08T19:14:25.865Z,8.65
2022-12-08T19:16:58.577Z,8.85
2022-12-08T19:19:26.636Z,8.25
2022-12-08T19:21:54.397Z,8.35
2022-12-08T19:24:21.938Z,8.63
2022-12-08T19:26:49.548Z,8.10
2022-12-08T19:29:17.207Z,8.98
2022-12-08T19:31:45.043Z,8.10
2022-12-08T19:34:13.532Z,9.02
2022-12-08T19:36:42.664Z,7.68
2022-12-08T19:39:46.762Z,10.15
2022-12-08T19:42:37.859Z,8.98
2022-12-08T19:45:14.033Z,10.00
2022-12-08T19:47:41.603Z,8.85
2022-12-08T19:50:30.903Z,8.65
2022-12-08T19:52:58.685Z,8.73
2022-12-08T19:55:26.230Z,8.13
2022-12-08T19:57:54.803Z,7.40
2022-12-08T20:00:22.777Z,8.73
2022-12-08T20:02:51.519Z,8.10
2022-12-08T20:05:19.152Z,9.48
2022-12-08T20:07:47.145Z,8.30
2022-12-08T20:10:17.429Z,7.40
2022-12-08T20:12:44.987Z,7.47
2022-12-08T20:15:12.669Z,8.13
2022-12-08T20:17:42.020Z,7.88
2022-12-08T20:20:10.651Z,7.30
2022-12-08T20:22:38.563Z,7.95
2022-12-08T20:25:06.702Z,6.63
2022-12-08T20:27:34.844Z,7.53
2022-12-08T20:30:02.216Z,7.63
2022-12-08T20:32:29.798Z,7.53
2022-12-08T20:34:57.331Z,6.72
2022-12-08T20:37:24.740Z,7.20
2022-12-08T20:39:52.776Z,7.30
2022-12-08T20:42:20.466Z,7.28
2022-12-08T20:44:48.215Z,7.40
2022-12-08T20:47:15.937Z,7.28
2022-12-08T20:49:43.705Z,7.32
2022-12-08T20:52:11.302Z,7.38
2022-12-08T20:54:38.890Z,7.70
2022-12-08T20:57:06.671Z,7.03
2022-12-08T20:59:34.551Z,7.47
2022-12-08T21:02:02.599Z,7.43
2022-12-08T21:04:30.680Z,7.32
2022-12-08T21:06:58.217Z,6.82
2022-12-08T21:09:25.971Z,6.95
2022-12-08T21:11:54.109Z,7.55
2022-12-08T21:14:21.742Z,7.45
2022-12-08T21:16:51.182Z,6.25
2022-12-08T21:19:20.305Z,7.15
2022-12-08T21:21:50.854Z,7.60
2022-12-08T21:24:18.724Z,8.63
2022-12-08T21:26:46.519Z,8.05
2022-12-08T21:29:15.251Z,6.53
2022-12-08T21:31:43.192Z,7.55
2022-12-08T21:34:10.844Z,7.93
2022-12-08T21:36:38.507Z,7.00
2022-12-08T21:39:12.029Z,7.38
2022-12-08T21:41:58.092Z,6.78
2022-12-08T21:44:26.174Z,8.15
2022-12-08T21:46:53.870Z,8.20
2022-12-08T21:49:22.403Z,8.13
2022-12-08T21:51:50.059Z,7.53
2022-12-08T21:54:19.239Z,7.88
2022-12-08T21:56:48.101Z,8.27
2022-12-08T21:59:16.122Z,8.32
2022-12-08T22:01:43.912Z,8.30
2022-12-08T22:04:12.673Z,8.45
2022-12-08T22:06:41.230Z,7.95
2022-12-08T22:09:11.772Z,8.05
2022-12-08T22:11:39.266Z,8.57
2022-12-08T22:14:12.566Z,7.82
2022-12-08T22:16:43.089Z,7.88
2022-12-08T22:19:11.135Z,7.38
2022-12-08T22:21:39.190Z,8.10
2022-12-08T22:24:07.096Z,8.35
2022-12-08T22:26:34.812Z,8.18
2022-12-08T22:29:02.488Z,8.73
2022-12-08T22:31:30.436Z,9.32
2022-12-08T22:33:58.666Z,8.55
2022-12-08T22:36:26.944Z,8.73
2022-12-08T22:38:54.746Z,8.35
2022-12-08T22:41:22.454Z,8.73
2022-12-08T22:43:50.424Z,8.90
2022-12-08T22:46:27.385Z,9.70
2022-12-08T22:48:55.219Z,9.43
2022-12-08T22:51:23.034Z,9.55
2022-12-08T22:53:50.767Z,9.07
2022-12-08T22:56:18.640Z,9.77
2022-12-08T22:58:46.458Z,9.65
2022-12-08T23:01:29.257Z,9.93
2022-12-08T23:03:57.763Z,9.50
2022-12-08T23:06:25.736Z,10.20
2022-12-08T23:08:53.639Z,10.15
2022-12-08T23:11:22.253Z,8.85
2022-12-08T23:13:50.306Z,9.90
2022-12-08T23:16:18.027Z,10.45
2022-12-08T23:18:46.274Z,10.27
2022-12-08T23:21:15.620Z,10.02
2022-12-08T23:23:43.077Z,9.57
2022-12-08T23:26:19.395Z,9.95
2022-12-08T23:28:46.988Z,9.70
2022-12-08T23:31:15.013Z,11.18
2022-12-08T23:33:42.896Z,10.32
2022-12-08T23:36:10.585Z,10.18
2022-12-08T23:38:38.030Z,10.30
2022-12-08T23:41:06.631Z,8.70
2022-12-08T23:43:34.552Z,11.13
2022-12-08T23:46:02.765Z,9.50
2022-12-08T23:48:34.631Z,9.05
2022-12-08T23:51:02.594Z,9.85
2022-12-08T23:53:30.734Z,9.88
2022-12-08T23:56:08.468Z,8.48
2022-12-08T23:58:36.381Z,11.02
